createdAt,value
2022-09-28T00:00:35.321Z,0.00
2022-09-28T00:01:35.505Z,0.00
2022-09-28T00:02:35.796Z,0.00
2022-09-28T00:03:35.756Z,0.00
2022-09-28T00:04:35.898Z,0.00
2022-09-28T00:05:36.049Z,0.00
2022-09-28T00:06:36.186Z,0.00
2022-09-28T00:07:36.337Z,0.00
2022-09-28T00:08:36.472Z,0.00
2022-09-28T00:09:36.612Z,0.00
2022-09-28T00:10:36.760Z,0.00
2022-09-28T00:11:36.900Z,0.00
2022-09-28T00:12:37.048Z,0.00
2022-09-28T00:13:37.223Z,0.00
2022-09-28T00:14:37.347Z,0.00
2022-09-28T00:15:37.528Z,0.00
2022-09-28T00:16:37.700Z,0.00
2022-09-28T00:17:37.788Z,0.00
2022-09-28T00:18:37.935Z,0.00
2022-09-28T00:19:38.077Z,0.00
2022-09-28T00:20:38.225Z,0.00
2022-09-28T00:21:38.374Z,0.00
2022-09-28T00:22:38.524Z,0.00
2022-09-28T00:23:38.675Z,0.00
2022-09-28T00:24:38.816Z,0.00
2022-09-28T00:25:38.965Z,0.00
2022-09-28T00:26:39.113Z,0.00
2022-09-28T00:27:39.259Z,0.00
2022-09-28T00:28:39.436Z,0.00
2022-09-28T00:29:39.557Z,0.00
2022-09-28T00:30:39.704Z,0.00
2022-09-28T00:31:39.891Z,0.00
2022-09-28T00:32:40.003Z,0.00
2022-09-28T00:33:40.155Z,0.00
2022-09-28T00:34:40.310Z,0.00
2022-09-28T00:35:40.463Z,0.00
2022-09-28T00:36:40.618Z,0.00
2022-09-28T00:37:40.765Z,0.00
2022-09-28T00:38:40.917Z,0.00
2022-09-28T00:39:41.072Z,0.00
2022-09-28T00:40:41.313Z,0.00
2022-09-28T00:41:41.373Z,0.00
2022-09-28T00:42:41.527Z,0.00
2022-09-28T00:43:41.705Z,0.00
2022-09-28T00:44:41.834Z,0.00
2022-09-28T00:45:42.052Z,0.00
2022-09-28T00:46:42.134Z,0.00
2022-09-28T00:47:42.296Z,0.00
2022-09-28T00:48:42.443Z,0.00
2022-09-28T00:49:42.591Z,0.00
2022-09-28T00:50:42.742Z,0.00
2022-09-28T00:51:42.889Z,0.00
2022-09-28T00:52:43.035Z,0.00
2022-09-28T00:53:43.183Z,0.00
2022-09-28T00:54:43.333Z,0.00
2022-09-28T00:55:43.482Z,0.00
2022-09-28T00:56:43.634Z,0.00
2022-09-28T00:57:43.789Z,0.00
2022-09-28T00:58:43.960Z,0.00
2022-09-28T00:59:44.082Z,0.00
2022-09-28T01:00:44.269Z,0.00
2022-09-28T01:01:44.482Z,0.00
2022-09-28T01:02:44.529Z,0.00
2022-09-28T01:03:44.681Z,0.00
2022-09-28T01:04:44.831Z,0.00
2022-09-28T01:05:44.985Z,0.00
2022-09-28T01:06:45.135Z,0.00
2022-09-28T01:07:45.279Z,0.00
2022-09-28T01:08:45.426Z,0.00
2022-09-28T01:09:45.574Z,0.00
2022-09-28T01:10:45.719Z,0.00
2022-09-28T01:11:45.866Z,0.00
2022-09-28T01:12:46.017Z,0.00
2022-09-28T01:13:46.171Z,0.00
2022-09-28T01:14:46.480Z,0.00
2022-09-28T01:15:46.477Z,0.00
2022-09-28T01:16:46.689Z,0.00
2022-09-28T01:17:46.778Z,0.00
2022-09-28T01:18:46.925Z,0.00
2022-09-28T01:19:47.071Z,0.00
2022-09-28T01:20:47.219Z,0.00
2022-09-28T01:21:47.367Z,0.00
2022-09-28T01:22:47.526Z,0.00
2022-09-28T01:23:47.667Z,0.00
2022-09-28T01:24:47.814Z,0.00
2022-09-28T01:25:47.961Z,0.00
2022-09-28T01:26:48.107Z,0.00
2022-09-28T01:27:48.257Z,0.00
2022-09-28T01:28:48.405Z,0.00
2022-09-28T01:29:48.554Z,0.00
2022-09-28T01:30:48.728Z,0.00
2022-09-28T01:31:48.936Z,0.00
2022-09-28T01:32:49.009Z,0.00
2022-09-28T01:33:49.161Z,0.00
2022-09-28T01:34:49.312Z,0.00
2022-09-28T01:35:49.463Z,0.00
2022-09-28T01:36:49.614Z,0.00
2022-09-28T01:37:49.756Z,0.00
2022-09-28T01:38:49.904Z,0.00
2022-09-28T01:39:50.048Z,0.00
2022-09-28T01:40:50.307Z,0.00
2022-09-28T01:41:50.350Z,0.00
2022-09-28T01:42:50.499Z,0.00
2022-09-28T01:43:50.648Z,0.00
2022-09-28T01:44:50.806Z,0.00
2022-09-28T01:45:51.006Z,0.00
2022-09-28T01:46:51.122Z,0.00
2022-09-28T01:47:51.241Z,0.00
2022-09-28T01:48:51.388Z,0.00
2022-09-28T01:49:51.532Z,0.00
2022-09-28T01:50:51.676Z,0.00
2022-09-28T01:51:51.823Z,0.00
2022-09-28T01:52:51.971Z,0.00
2022-09-28T01:53:52.114Z,0.00
2022-09-28T01:54:52.260Z,0.00
2022-09-28T01:55:52.405Z,0.00
2022-09-28T01:56:52.554Z,0.00
2022-09-28T01:57:52.699Z,0.00
2022-09-28T01:58:52.845Z,0.00
2022-09-28T01:59:52.999Z,0.00
2022-09-28T02:00:53.188Z,0.00
2022-09-28T02:01:53.337Z,0.00
2022-09-28T02:02:53.462Z,0.00
2022-09-28T02:03:53.579Z,0.00
2022-09-28T02:04:53.725Z,0.00
2022-09-28T02:05:53.872Z,0.00
2022-09-28T02:06:54.014Z,0.00
2022-09-28T02:07:54.159Z,0.00
2022-09-28T02:08:54.306Z,0.00
2022-09-28T02:09:54.453Z,0.00
2022-09-28T02:10:54.602Z,0.00
2022-09-28T02:11:54.747Z,0.00
2022-09-28T02:12:54.892Z,0.00
2022-09-28T02:13:55.037Z,0.00
2022-09-28T02:14:55.181Z,0.00
2022-09-28T02:15:55.394Z,0.00
2022-09-28T02:16:55.469Z,0.00
2022-09-28T02:17:55.616Z,0.00
2022-09-28T02:18:55.819Z,0.00
2022-09-28T02:19:55.909Z,0.00
2022-09-28T02:20:56.056Z,0.00
2022-09-28T02:21:56.204Z,0.00
2022-09-28T02:22:56.355Z,0.00
2022-09-28T02:23:56.497Z,0.00
2022-09-28T02:24:56.645Z,0.00
2022-09-28T02:25:56.787Z,0.00
2022-09-28T02:26:56.931Z,0.00
2022-09-28T02:27:57.077Z,0.00
2022-09-28T02:28:57.220Z,0.00
2022-09-28T02:29:57.361Z,0.00
2022-09-28T02:30:57.511Z,0.00
2022-09-28T02:31:57.696Z,0.00
2022-09-28T02:32:57.819Z,0.00
2022-09-28T02:33:57.940Z,0.00
2022-09-28T02:34:58.103Z,0.00
2022-09-28T02:35:58.227Z,0.00
2022-09-28T02:36:58.363Z,0.00
2022-09-28T02:37:58.506Z,0.00
2022-09-28T02:38:58.655Z,0.00
2022-09-28T02:39:58.801Z,0.00
2022-09-28T02:40:59.016Z,0.00
2022-09-28T02:41:59.100Z,0.00
2022-09-28T02:42:59.247Z,0.00
2022-09-28T02:43:59.415Z,0.00
2022-09-28T02:44:59.545Z,0.00
2022-09-28T02:45:59.742Z,0.00
2022-09-28T02:46:59.843Z,0.00
2022-09-28T02:47:59.990Z,0.00
2022-09-28T02:49:20.375Z,0.00
2022-09-28T02:50:01.328Z,0.00
2022-09-28T02:51:00.439Z,0.00
2022-09-28T02:52:00.588Z,0.00
2022-09-28T02:53:00.737Z,0.00
2022-09-28T02:54:00.889Z,0.00
2022-09-28T02:55:01.034Z,0.00
2022-09-28T02:56:01.183Z,0.00
2022-09-28T02:57:01.331Z,0.00
2022-09-28T02:58:01.471Z,0.00
2022-09-28T02:59:01.609Z,0.00
2022-09-28T03:00:01.767Z,0.00
2022-09-28T03:01:02.008Z,0.00
2022-09-28T03:02:02.097Z,0.00
2022-09-28T03:03:02.193Z,0.00
2022-09-28T03:04:02.336Z,0.00
2022-09-28T03:05:02.482Z,0.00
2022-09-28T03:06:02.656Z,0.00
2022-09-28T03:07:02.774Z,0.00
2022-09-28T03:08:02.919Z,0.00
2022-09-28T03:09:03.066Z,0.00
2022-09-28T03:10:03.218Z,0.00
2022-09-28T03:11:03.369Z,0.00
2022-09-28T03:12:03.523Z,0.00
2022-09-28T03:13:03.670Z,0.00
2022-09-28T03:14:03.817Z,0.00
2022-09-28T03:15:03.965Z,0.00
2022-09-28T03:16:04.148Z,0.00
2022-09-28T03:17:04.255Z,0.00
2022-09-28T03:18:04.407Z,0.00
2022-09-28T03:19:04.550Z,0.00
2022-09-28T03:20:04.700Z,0.00
2022-09-28T03:21:04.850Z,0.00
2022-09-28T03:22:05.027Z,0.00
2022-09-28T03:23:24.789Z,0.00
2022-09-28T03:24:06.314Z,0.00
2022-09-28T03:25:05.455Z,0.00
2022-09-28T03:26:05.602Z,0.00
2022-09-28T03:27:05.749Z,0.00
2022-09-28T03:28:05.897Z,0.00
2022-09-28T03:29:06.041Z,0.00
2022-09-28T03:30:06.191Z,0.00
2022-09-28T03:31:06.470Z,0.00
2022-09-28T03:32:06.495Z,0.00
2022-09-28T03:33:06.644Z,0.00
2022-09-28T03:34:06.787Z,0.00
2022-09-28T03:35:06.935Z,0.00
2022-09-28T03:36:07.083Z,0.00
2022-09-28T03:37:07.227Z,0.00
2022-09-28T03:38:07.399Z,0.00
2022-09-28T03:39:07.515Z,0.00
2022-09-28T03:40:07.665Z,0.00
2022-09-28T03:41:07.811Z,0.00
2022-09-28T03:42:07.958Z,0.00
2022-09-28T03:43:08.114Z,0.00
2022-09-28T03:44:08.256Z,0.00
2022-09-28T03:45:08.402Z,0.00
2022-09-28T03:46:08.661Z,0.00
2022-09-28T03:47:08.696Z,0.00
2022-09-28T03:48:08.838Z,0.00
2022-09-28T03:49:08.986Z,0.00
2022-09-28T03:50:09.128Z,0.00
2022-09-28T03:51:09.277Z,0.00
2022-09-28T03:52:09.410Z,0.00
2022-09-28T03:53:09.572Z,0.00
2022-09-28T03:54:09.687Z,0.00
2022-09-28T03:55:09.830Z,0.00
2022-09-28T03:56:09.973Z,0.00
2022-09-28T03:57:10.117Z,0.00
2022-09-28T03:58:10.258Z,0.00
2022-09-28T03:59:10.499Z,0.00
2022-09-28T04:00:10.548Z,0.00
2022-09-28T04:01:14.175Z,0.00
2022-09-28T04:02:11.968Z,0.00
2022-09-28T04:03:10.959Z,0.00
2022-09-28T04:04:11.115Z,0.00
2022-09-28T04:05:11.244Z,0.00
2022-09-28T04:06:11.382Z,0.00
2022-09-28T04:07:11.525Z,0.00
2022-09-28T04:08:11.672Z,0.00
2022-09-28T04:09:11.842Z,0.00
2022-09-28T04:10:11.956Z,0.00
2022-09-28T04:11:12.098Z,0.00
2022-09-28T04:12:12.244Z,0.00
2022-09-28T04:13:12.386Z,0.00
2022-09-28T04:14:12.531Z,0.00
2022-09-28T04:15:12.669Z,0.00
2022-09-28T04:16:12.861Z,0.00
2022-09-28T04:17:12.957Z,0.00
2022-09-28T04:18:13.105Z,0.00
2022-09-28T04:19:13.327Z,0.00
2022-09-28T04:20:13.393Z,0.00
2022-09-28T04:21:13.540Z,0.00
2022-09-28T04:22:13.681Z,0.00
2022-09-28T04:23:13.829Z,0.00
2022-09-28T04:24:13.969Z,0.00
2022-09-28T04:25:14.135Z,0.00
2022-09-28T04:26:14.251Z,0.00
2022-09-28T04:27:14.404Z,0.00
2022-09-28T04:28:14.535Z,0.00
2022-09-28T04:29:14.673Z,0.00
2022-09-28T04:30:14.808Z,0.00
2022-09-28T04:31:15.038Z,0.00
2022-09-28T04:32:15.078Z,0.00
2022-09-28T04:33:15.218Z,0.00
2022-09-28T04:34:15.363Z,0.00
2022-09-28T04:35:15.496Z,0.00
2022-09-28T04:36:15.633Z,0.00
2022-09-28T04:37:15.769Z,0.00
2022-09-28T04:38:26.795Z,0.00
2022-09-28T04:39:17.172Z,0.00
2022-09-28T04:40:16.308Z,0.00
2022-09-28T04:41:16.376Z,0.00
2022-09-28T04:42:16.488Z,0.00
2022-09-28T04:43:16.635Z,0.00
2022-09-28T04:44:16.783Z,0.00
2022-09-28T04:45:16.929Z,0.00
2022-09-28T04:46:17.242Z,0.00
2022-09-28T04:47:17.237Z,0.00
2022-09-28T04:48:17.390Z,0.00
2022-09-28T04:49:17.646Z,0.00
2022-09-28T04:50:17.700Z,0.00
2022-09-28T04:51:17.844Z,0.00
2022-09-28T04:52:18.685Z,0.00
2022-09-28T04:53:18.155Z,0.00
2022-09-28T04:54:18.295Z,0.00
2022-09-28T04:55:18.444Z,0.00
2022-09-28T04:56:18.597Z,0.00
2022-09-28T04:57:18.840Z,0.00
2022-09-28T04:58:18.892Z,0.00
2022-09-28T04:59:19.043Z,0.00
2022-09-28T05:00:19.192Z,0.00
2022-09-28T05:01:19.398Z,0.00
2022-09-28T05:02:19.600Z,0.00
2022-09-28T05:03:19.644Z,0.00
2022-09-28T05:04:23.655Z,0.00
2022-09-28T05:05:19.942Z,0.00
2022-09-28T05:06:20.088Z,0.00
2022-09-28T05:07:20.243Z,0.00
2022-09-28T05:08:20.388Z,0.00
2022-09-28T05:09:20.534Z,0.00
2022-09-28T05:10:20.682Z,0.00
2022-09-28T05:11:20.828Z,0.00
2022-09-28T05:12:20.996Z,0.00
2022-09-28T05:13:21.119Z,0.00
2022-09-28T05:14:21.267Z,0.00
2022-09-28T05:15:21.412Z,0.00
2022-09-28T05:16:21.677Z,0.00
2022-09-28T05:17:21.702Z,0.00
2022-09-28T05:18:21.852Z,0.00
2022-09-28T05:19:22.004Z,0.00
2022-09-28T05:20:22.152Z,0.00
2022-09-28T05:21:22.299Z,0.00
2022-09-28T05:22:22.460Z,0.00
2022-09-28T05:23:22.611Z,0.00
2022-09-28T05:24:22.767Z,0.00
2022-09-28T05:25:22.962Z,5.62
2022-09-28T05:26:23.074Z,5.62
2022-09-28T05:27:23.253Z,5.62
2022-09-28T05:28:23.374Z,5.62
2022-09-28T05:29:23.525Z,5.62
2022-09-28T05:30:23.679Z,5.62
2022-09-28T05:31:23.950Z,5.62
2022-09-28T05:32:23.983Z,5.62
2022-09-28T05:33:24.137Z,5.62
2022-09-28T05:34:24.291Z,11.25
2022-09-28T05:35:24.448Z,11.25
2022-09-28T05:36:24.598Z,11.25
2022-09-28T05:37:24.748Z,11.25
2022-09-28T05:38:24.897Z,16.87
2022-09-28T05:39:25.051Z,16.87
2022-09-28T05:40:25.258Z,16.87
2022-09-28T05:41:25.351Z,16.87
2022-09-28T05:42:25.528Z,16.87
2022-09-28T05:43:25.661Z,16.87
2022-09-28T05:44:25.817Z,16.87
2022-09-28T05:45:26.044Z,22.50
2022-09-28T05:46:26.190Z,22.50
2022-09-28T05:47:26.274Z,22.50
2022-09-28T05:48:26.431Z,28.12
2022-09-28T05:49:26.584Z,33.75
2022-09-28T05:50:26.734Z,39.37
2022-09-28T05:51:26.892Z,39.37
2022-09-28T05:52:27.041Z,45.00
2022-09-28T05:53:27.193Z,45.00
2022-09-28T05:54:27.341Z,45.00
2022-09-28T05:55:27.531Z,45.00
2022-09-28T05:56:27.642Z,45.00
2022-09-28T05:57:27.813Z,39.37
2022-09-28T05:58:27.936Z,39.37
2022-09-28T05:59:28.075Z,39.37
2022-09-28T06:00:28.222Z,45.00
2022-09-28T06:01:28.494Z,45.00
2022-09-28T06:02:28.591Z,50.62
2022-09-28T06:03:28.662Z,50.62
2022-09-28T06:04:28.807Z,56.25
2022-09-28T06:05:28.955Z,56.25
2022-09-28T06:06:29.098Z,56.25
2022-09-28T06:07:29.243Z,56.25
2022-09-28T06:08:29.391Z,61.87
2022-09-28T06:09:29.539Z,61.87
2022-09-28T06:10:29.685Z,61.87
2022-09-28T06:11:29.830Z,61.87
2022-09-28T06:12:29.998Z,61.87
2022-09-28T06:13:30.124Z,67.50
2022-09-28T06:14:30.272Z,67.50
2022-09-28T06:15:30.421Z,67.50
2022-09-28T06:16:30.634Z,78.75
2022-09-28T06:17:30.718Z,84.37
2022-09-28T06:18:30.866Z,84.37
2022-09-28T06:19:31.011Z,84.37
2022-09-28T06:20:31.154Z,78.75
2022-09-28T06:21:31.296Z,78.75
2022-09-28T06:22:31.435Z,84.37
2022-09-28T06:23:31.578Z,90.00
2022-09-28T06:24:31.720Z,90.00
2022-09-28T06:25:31.865Z,84.37
2022-09-28T06:26:32.013Z,78.75
2022-09-28T06:27:32.181Z,73.12
2022-09-28T06:28:32.300Z,78.75
2022-09-28T06:29:32.442Z,90.00
2022-09-28T06:30:32.677Z,95.62
2022-09-28T06:31:32.723Z,95.62
2022-09-28T06:32:32.862Z,101.25
2022-09-28T06:33:33.006Z,112.50
2022-09-28T06:34:33.146Z,112.50
2022-09-28T06:35:33.287Z,112.50
2022-09-28T06:36:33.425Z,118.12
2022-09-28T06:37:33.568Z,129.37
2022-09-28T06:38:33.711Z,135.00
2022-09-28T06:39:33.854Z,135.00
2022-09-28T06:40:34.095Z,135.00
2022-09-28T06:41:34.139Z,140.62
2022-09-28T06:42:34.282Z,151.87
2022-09-28T06:43:34.667Z,163.12
2022-09-28T06:44:34.558Z,157.50
2022-09-28T06:45:34.701Z,174.37
2022-09-28T06:46:34.887Z,180.00
2022-09-28T06:47:34.985Z,185.62
2022-09-28T06:48:35.127Z,163.12
2022-09-28T06:49:35.278Z,146.25
2022-09-28T06:50:35.413Z,129.37
2022-09-28T06:51:35.559Z,118.12
2022-09-28T06:52:35.701Z,106.87
2022-09-28T06:53:35.839Z,90.00
2022-09-28T06:54:35.982Z,73.12
2022-09-28T06:55:36.144Z,73.12
2022-09-28T06:56:36.258Z,67.50
2022-09-28T06:57:36.397Z,73.12
2022-09-28T06:58:36.582Z,73.12
2022-09-28T06:59:36.724Z,73.12
2022-09-28T07:00:36.816Z,61.87
2022-09-28T07:01:37.055Z,61.87
2022-09-28T07:02:37.167Z,73.12
2022-09-28T07:03:37.240Z,73.12
2022-09-28T07:04:37.392Z,78.75
2022-09-28T07:05:37.515Z,84.37
2022-09-28T07:06:37.653Z,90.00
2022-09-28T07:07:37.991Z,101.25
2022-09-28T07:08:37.933Z,95.62
2022-09-28T07:09:42.214Z,95.62
2022-09-28T07:10:38.214Z,101.25
2022-09-28T07:11:38.343Z,90.00
2022-09-28T07:12:38.482Z,78.75
2022-09-28T07:13:53.948Z,78.75
2022-09-28T07:14:47.706Z,78.75
2022-09-28T07:15:39.919Z,78.75
2022-09-28T07:17:04.596Z,101.25
2022-09-28T07:17:52.774Z,123.75
2022-09-28T07:18:40.323Z,140.62
2022-09-28T07:19:39.439Z,129.37
2022-09-28T07:20:51.554Z,140.62
2022-09-28T07:21:40.734Z,146.25
2022-09-28T07:22:43.464Z,157.50
2022-09-28T07:23:50.651Z,174.37
2022-09-28T07:24:41.127Z,180.00
2022-09-28T07:25:40.244Z,180.00
2022-09-28T07:26:40.382Z,185.62
2022-09-28T07:27:40.510Z,191.25
2022-09-28T07:28:40.639Z,196.87
2022-09-28T07:29:40.772Z,208.12
2022-09-28T07:30:41.055Z,236.25
2022-09-28T07:31:41.030Z,264.37
2022-09-28T07:32:41.153Z,275.62
2022-09-28T07:33:41.279Z,286.87
2022-09-28T07:34:41.399Z,298.12
2022-09-28T07:35:41.522Z,292.50
2022-09-28T07:36:41.636Z,281.25
2022-09-28T07:37:41.751Z,241.87
2022-09-28T07:38:41.869Z,196.87
2022-09-28T07:39:41.988Z,168.75
2022-09-28T07:40:45.131Z,168.75
2022-09-28T07:41:43.242Z,151.87
2022-09-28T07:42:42.341Z,129.37
2022-09-28T07:43:42.455Z,135.00
2022-09-28T07:44:42.574Z,140.62
2022-09-28T07:45:42.815Z,146.25
2022-09-28T07:46:42.813Z,146.25
2022-09-28T07:47:42.930Z,140.62
2022-09-28T07:48:43.043Z,129.37
2022-09-28T07:49:43.166Z,123.75
2022-09-28T07:50:43.281Z,140.62
2022-09-28T07:51:43.399Z,146.25
2022-09-28T07:52:43.522Z,180.00
2022-09-28T07:53:43.636Z,236.25
2022-09-28T07:54:43.759Z,275.62
2022-09-28T07:55:43.881Z,275.62
2022-09-28T07:56:44.000Z,281.25
2022-09-28T07:57:44.122Z,275.62
2022-09-28T07:58:44.239Z,298.12
2022-09-28T07:59:44.355Z,331.87
2022-09-28T08:00:44.473Z,371.25
2022-09-28T08:01:44.699Z,376.87
2022-09-28T08:02:44.766Z,393.75
2022-09-28T08:03:44.813Z,421.87
2022-09-28T08:04:44.929Z,489.37
2022-09-28T08:05:45.043Z,517.50
2022-09-28T08:06:45.153Z,495.00
2022-09-28T08:07:45.258Z,483.75
2022-09-28T08:08:45.361Z,478.12
2022-09-28T08:09:45.463Z,466.87
2022-09-28T08:10:47.217Z,466.87
2022-09-28T08:11:45.663Z,478.12
2022-09-28T08:12:45.764Z,506.25
2022-09-28T08:13:45.862Z,528.75
2022-09-28T08:14:45.957Z,534.37
2022-09-28T08:15:46.059Z,517.50
2022-09-28T08:16:47.661Z,472.50
2022-09-28T08:17:46.282Z,433.12
2022-09-28T08:18:46.354Z,416.25
2022-09-28T08:19:46.453Z,410.62
2022-09-28T08:20:50.727Z,393.75
2022-09-28T08:21:46.641Z,371.25
2022-09-28T08:22:46.736Z,354.37
2022-09-28T08:23:46.831Z,360.00
2022-09-28T08:24:46.929Z,371.25
2022-09-28T08:25:47.031Z,376.87
2022-09-28T08:26:47.129Z,388.12
2022-09-28T08:27:47.227Z,399.37
2022-09-28T08:28:47.326Z,433.12
2022-09-28T08:29:47.415Z,444.37
2022-09-28T08:30:47.707Z,438.75
2022-09-28T08:31:47.604Z,450.00
2022-09-28T08:32:47.702Z,478.12
2022-09-28T08:33:47.824Z,511.87
2022-09-28T08:34:47.901Z,562.50
2022-09-28T08:35:48.000Z,613.12
2022-09-28T08:36:48.092Z,573.75
2022-09-28T08:37:52.329Z,540.00
2022-09-28T08:38:49.295Z,517.50
2022-09-28T08:39:48.373Z,438.75
2022-09-28T08:40:48.576Z,326.25
2022-09-28T08:41:48.569Z,264.37
2022-09-28T08:42:48.666Z,253.12
2022-09-28T08:43:48.762Z,264.37
2022-09-28T08:44:48.871Z,247.50
2022-09-28T08:45:48.995Z,236.25
2022-09-28T08:46:49.061Z,225.00
2022-09-28T08:47:49.161Z,202.50
2022-09-28T08:49:06.635Z,180.00
2022-09-28T08:49:49.419Z,174.37
2022-09-28T08:50:49.477Z,180.00
2022-09-28T08:51:49.567Z,196.87
2022-09-28T08:52:49.678Z,213.75
2022-09-28T08:53:49.779Z,236.25
2022-09-28T08:54:49.880Z,258.75
2022-09-28T08:55:49.990Z,292.50
2022-09-28T08:56:50.099Z,348.75
2022-09-28T08:57:50.207Z,427.50
2022-09-28T08:58:50.311Z,534.37
2022-09-28T08:59:50.419Z,658.12
2022-09-28T09:00:50.575Z,748.12
2022-09-28T09:01:50.677Z,748.12
2022-09-28T09:02:50.819Z,630.00
2022-09-28T09:03:50.818Z,596.25
2022-09-28T09:04:50.911Z,652.50
2022-09-28T09:05:51.021Z,759.37
2022-09-28T09:06:51.086Z,1012.50
2022-09-28T09:07:51.171Z,765.00
2022-09-28T09:08:51.256Z,832.50
2022-09-28T09:09:51.329Z,736.87
2022-09-28T09:10:51.409Z,590.62
2022-09-28T09:11:51.484Z,500.62
2022-09-28T09:12:54.629Z,421.87
2022-09-28T09:13:51.641Z,343.12
2022-09-28T09:14:51.721Z,286.87
2022-09-28T09:15:51.816Z,236.25
2022-09-28T09:16:51.915Z,219.37
2022-09-28T09:17:51.955Z,247.50
2022-09-28T09:18:52.034Z,292.50
2022-09-28T09:19:52.117Z,365.62
2022-09-28T09:20:52.202Z,444.37
2022-09-28T09:21:52.314Z,506.25
2022-09-28T09:22:52.377Z,540.00
2022-09-28T09:23:52.458Z,630.00
2022-09-28T09:24:52.541Z,990.00
2022-09-28T09:25:52.620Z,1164.37
2022-09-28T09:26:52.692Z,1141.87
2022-09-28T09:27:52.768Z,1546.87
2022-09-28T09:28:52.830Z,2064.37
2022-09-28T09:29:52.888Z,1963.12
2022-09-28T09:30:52.973Z,1833.75
2022-09-28T09:31:52.978Z,815.62
2022-09-28T09:32:53.016Z,2345.62
2022-09-28T09:33:53.055Z,2278.12
2022-09-28T09:34:54.642Z,1428.75
2022-09-28T09:35:53.118Z,2576.25
2022-09-28T09:36:53.141Z,2227.50
2022-09-28T09:37:57.720Z,1833.75
2022-09-28T09:38:53.169Z,1743.75
2022-09-28T09:39:53.173Z,1698.75
2022-09-28T09:40:53.323Z,1676.25
2022-09-28T09:41:53.175Z,1760.62
2022-09-28T09:42:53.167Z,1816.87
2022-09-28T09:43:53.154Z,1867.50
2022-09-28T09:44:53.136Z,1968.75
2022-09-28T09:45:53.177Z,1918.12
2022-09-28T09:46:53.093Z,1845.00
2022-09-28T09:47:53.077Z,1890.00
2022-09-28T09:48:53.036Z,1057.50
2022-09-28T09:49:53.008Z,2216.25
2022-09-28T09:50:52.971Z,2205.00
2022-09-28T09:51:52.934Z,2058.75
2022-09-28T09:52:52.899Z,2199.37
2022-09-28T09:53:52.895Z,2733.75
2022-09-28T09:54:52.810Z,2840.62
2022-09-28T09:55:52.763Z,2452.50
2022-09-28T09:56:52.716Z,2221.87
2022-09-28T09:57:52.668Z,2413.12
2022-09-28T09:58:52.618Z,2593.12
2022-09-28T09:59:52.567Z,2475.00
2022-09-28T10:00:52.609Z,2548.12
2022-09-28T10:01:52.469Z,2503.12
2022-09-28T10:02:52.477Z,2469.37
2022-09-28T10:03:52.357Z,2126.25
2022-09-28T10:04:52.298Z,748.12
2022-09-28T10:05:52.242Z,697.50
2022-09-28T10:06:52.189Z,562.50
2022-09-28T10:07:52.148Z,590.62
2022-09-28T10:08:52.115Z,466.87
2022-09-28T10:09:52.133Z,433.12
2022-09-28T10:10:52.070Z,382.50
2022-09-28T10:11:52.076Z,348.75
2022-09-28T10:12:52.057Z,315.00
2022-09-28T10:13:52.062Z,315.00
2022-09-28T10:14:52.073Z,320.62
2022-09-28T10:15:52.094Z,331.87
2022-09-28T10:16:52.169Z,331.87
2022-09-28T10:17:52.151Z,343.12
2022-09-28T10:18:52.181Z,371.25
2022-09-28T10:19:52.224Z,416.25
2022-09-28T10:20:52.266Z,2019.37
2022-09-28T10:21:52.305Z,461.25
2022-09-28T10:22:52.358Z,489.37
2022-09-28T10:23:52.395Z,551.25
2022-09-28T10:24:52.446Z,3060.00
2022-09-28T10:25:52.507Z,3121.87
2022-09-28T10:26:52.503Z,2835.00
2022-09-28T10:27:52.582Z,838.12
2022-09-28T10:28:52.535Z,663.75
2022-09-28T10:29:52.548Z,686.25
2022-09-28T10:30:52.709Z,759.37
2022-09-28T10:31:52.582Z,2334.37
2022-09-28T10:32:52.595Z,2278.12
2022-09-28T10:33:52.590Z,2188.12
2022-09-28T10:34:52.580Z,2700.00
2022-09-28T10:35:52.559Z,984.37
2022-09-28T10:36:52.536Z,2790.00
2022-09-28T10:37:52.502Z,2964.37
2022-09-28T10:38:52.460Z,2761.87
2022-09-28T10:39:52.415Z,2193.75
2022-09-28T10:40:52.380Z,1181.25
2022-09-28T10:41:52.322Z,1923.75
2022-09-28T10:42:52.247Z,720.00
2022-09-28T10:43:57.403Z,590.62
2022-09-28T10:44:52.162Z,585.00
2022-09-28T10:45:52.146Z,540.00
2022-09-28T10:46:52.100Z,534.37
2022-09-28T10:47:52.194Z,472.50
2022-09-28T10:48:52.070Z,450.00
2022-09-28T10:49:52.064Z,450.00
2022-09-28T10:50:52.066Z,472.50
2022-09-28T10:51:52.081Z,506.25
2022-09-28T10:52:52.117Z,523.12
2022-09-28T10:53:52.101Z,607.50
2022-09-28T10:54:52.118Z,720.00
2022-09-28T10:55:52.134Z,832.50
2022-09-28T10:56:52.150Z,1012.50
2022-09-28T10:57:52.192Z,933.75
2022-09-28T10:58:52.200Z,2160.00
2022-09-28T10:59:52.195Z,804.37
2022-09-28T11:00:52.311Z,618.75
2022-09-28T11:01:52.228Z,528.75
2022-09-28T11:02:52.268Z,483.75
2022-09-28T11:03:52.271Z,444.37
2022-09-28T11:04:52.298Z,427.50
2022-09-28T11:05:52.324Z,438.75
2022-09-28T11:06:52.409Z,461.25
2022-09-28T11:07:52.392Z,489.37
2022-09-28T11:08:52.417Z,528.75
2022-09-28T11:09:52.457Z,506.25
2022-09-28T11:10:52.492Z,528.75
2022-09-28T11:11:52.526Z,562.50
2022-09-28T11:12:52.564Z,585.00
2022-09-28T11:13:52.739Z,613.12
2022-09-28T11:14:52.652Z,641.25
2022-09-28T11:15:52.688Z,646.87
2022-09-28T11:16:52.806Z,641.25
2022-09-28T11:17:52.777Z,646.87
2022-09-28T11:18:52.825Z,658.12
2022-09-28T11:19:52.868Z,1023.75
2022-09-28T11:20:52.906Z,2913.75
2022-09-28T11:21:52.936Z,2930.62
2022-09-28T11:22:53.665Z,2390.62
2022-09-28T11:23:52.946Z,1445.62
2022-09-28T11:24:52.938Z,579.37
2022-09-28T11:25:52.937Z,410.62
2022-09-28T11:26:52.954Z,348.75
2022-09-28T11:27:52.965Z,298.12
2022-09-28T11:28:52.971Z,247.50
2022-09-28T11:29:53.054Z,208.12
2022-09-28T11:30:53.115Z,168.75
2022-09-28T11:31:53.058Z,140.62
2022-09-28T11:32:53.093Z,123.75
2022-09-28T11:33:53.131Z,123.75
2022-09-28T11:34:59.741Z,135.00
2022-09-28T11:35:54.234Z,157.50
2022-09-28T11:36:53.268Z,180.00
2022-09-28T11:37:53.324Z,213.75
2022-09-28T11:38:53.384Z,241.87
2022-09-28T11:39:53.451Z,258.75
2022-09-28T11:40:53.562Z,258.75
2022-09-28T11:41:53.577Z,270.00
2022-09-28T11:42:53.707Z,270.00
2022-09-28T11:43:53.712Z,258.75
2022-09-28T11:44:53.780Z,258.75
2022-09-28T11:45:54.017Z,253.12
2022-09-28T11:46:53.923Z,264.37
2022-09-28T11:47:53.991Z,275.62
2022-09-28T11:48:54.062Z,281.25
2022-09-28T11:49:54.135Z,298.12
2022-09-28T11:50:54.218Z,292.50
2022-09-28T11:51:54.288Z,281.25
2022-09-28T11:52:54.364Z,286.87
2022-09-28T11:53:54.439Z,298.12
2022-09-28T11:54:54.513Z,320.62
2022-09-28T11:55:54.586Z,331.87
2022-09-28T11:56:54.664Z,348.75
2022-09-28T11:57:54.742Z,315.00
2022-09-28T11:58:54.834Z,298.12
2022-09-28T11:59:54.892Z,292.50
2022-09-28T12:00:54.975Z,281.25
2022-09-28T12:01:55.078Z,264.37
2022-09-28T12:02:55.265Z,253.12
2022-09-28T12:03:55.208Z,253.12
2022-09-28T12:04:55.292Z,264.37
2022-09-28T12:05:55.463Z,275.62
2022-09-28T12:06:55.457Z,303.75
2022-09-28T12:07:55.541Z,331.87
2022-09-28T12:08:55.620Z,343.12
2022-09-28T12:09:55.705Z,360.00
2022-09-28T12:10:55.787Z,371.25
2022-09-28T12:11:55.866Z,388.12
2022-09-28T12:12:55.948Z,393.75
2022-09-28T12:13:56.021Z,399.37
2022-09-28T12:14:56.099Z,410.62
2022-09-28T12:17:11.811Z,427.50
2022-09-28T12:17:57.488Z,438.75
2022-09-28T12:18:56.454Z,427.50
2022-09-28T12:19:56.498Z,433.12
2022-09-28T12:20:56.572Z,438.75
2022-09-28T12:21:56.642Z,438.75
2022-09-28T12:22:56.717Z,438.75
2022-09-28T12:23:56.788Z,438.75
2022-09-28T12:24:56.863Z,450.00
2022-09-28T12:25:56.932Z,444.37
2022-09-28T12:26:57.004Z,461.25
2022-09-28T12:27:57.076Z,478.12
2022-09-28T12:28:57.145Z,506.25
2022-09-28T12:29:57.213Z,545.62
2022-09-28T12:30:57.346Z,596.25
2022-09-28T12:31:57.349Z,641.25
2022-09-28T12:32:57.416Z,669.37
2022-09-28T12:33:57.506Z,680.62
2022-09-28T12:34:57.546Z,691.87
2022-09-28T12:35:57.611Z,725.62
2022-09-28T12:36:57.671Z,759.37
2022-09-28T12:37:57.732Z,821.25
2022-09-28T12:39:17.542Z,894.37
2022-09-28T12:39:59.018Z,1113.75
2022-09-28T12:40:57.978Z,1113.75
2022-09-28T12:41:57.919Z,2351.25
2022-09-28T12:42:57.935Z,1378.12
2022-09-28T12:43:57.937Z,1873.12
2022-09-28T12:44:59.613Z,2452.50
2022-09-28T12:46:12.634Z,2812.50
2022-09-28T12:46:58.908Z,3273.75
2022-09-28T12:47:57.835Z,1164.37
2022-09-28T12:49:43.619Z,1867.50
2022-09-28T12:50:59.137Z,815.62
2022-09-28T12:51:57.692Z,776.25
2022-09-28T12:53:00.697Z,2160.00